Texas General Land Office  Texas General
 Land Office
 Oil Spill Prevention
 & Response
Texas Automated Buoy System
Real Time Ocean Observations
Supporting Oil Spill Prevention and Response since 1995
Geochemical and Environmental Research Group

TABS Buoy J -- Texas Automated Buoy System

TABS Buoy J Conditions at 07/28/2014 15:30 UTC (07/28/2014 10:30 CDT)
26° 11.4840'N   97° 3.0420'W
AA3900 DCS - sensor depth 2m
Anemometer height: 4m
Water Depth: 68 feet (20 meters)
Speed: 4.00 cm/s (0.08 kts) Direction: 290 °T (WNW) Water Temp: 26°C (80 °F)
System Voltage: 0.0 V Signal Strength: 0.0 dB Ping Count: 0
Wind: 1.3 m/s (2.5 kts)
          From 144°T (SE)
Air Temp: 25 °C (77 °F)
Relative Humidity:  N/A
Pressure: 1011.9 mb (29.88 inHg)

  


IMPORTANT: Notice to Mariners


Today's Velocity Data (download)

   Date   |  Time  |   East |   North|   Speed|  Dir | WaterT |
          |  (UTC) |  (cm/s)|  (cm/s)|  (cm/s)| (°T) |  (°C)  |
==========+========+========+========+========+======+========+
07/27/2014 22:30:00     8.69     2.33     9.00   75.0   27.0
07/27/2014 23:00:00    10.20     4.12    11.00   68.0   27.0
07/27/2014 23:30:00     8.39     5.45    10.00   57.0   26.8
07/28/2014 00:00:00    10.69     5.45    12.00   63.0   26.2
07/28/2014 00:30:00     9.71     7.05    12.00   54.0   26.8
07/28/2014 01:00:00     6.89     5.79     9.00   50.0   26.8
07/28/2014 01:30:00     8.03     8.92    12.00   42.0   26.8
07/28/2014 02:00:00     4.85     8.75    10.00   29.0   26.8
07/28/2014 02:30:00     9.40    12.94    15.99   36.0   24.8
07/28/2014 03:00:00     5.13    14.10    15.00   20.0   26.8
07/28/2014 03:30:00     5.86    13.81    15.00   23.0   26.8
07/28/2014 04:00:00     5.47    12.89    14.00   23.0   26.8
07/28/2014 04:30:00     8.60    12.29    15.00   35.0   26.8
07/28/2014 05:00:00     7.95    12.72    15.00   32.0   26.8
07/28/2014 05:30:00     7.01    14.38    16.00   26.0   26.8
07/28/2014 06:00:00     5.69    12.79    14.00   24.0   26.8
07/28/2014 06:30:00     6.14    12.58    14.00   26.0   26.8
07/28/2014 07:00:00     4.45    12.22    13.01   20.0   26.8
07/28/2014 07:30:00     3.36    12.56    13.00   15.0   26.8
07/28/2014 08:00:00     2.29    10.76    11.00   12.0   26.8
07/28/2014 08:30:00     2.49    11.74    12.00   12.0   26.8
07/28/2014 09:00:00    -0.24    14.00    14.00  359.0   26.8
07/28/2014 09:30:00    -0.21    12.00    12.00  359.0   26.8
07/28/2014 10:00:00    -0.91    12.97    13.00  356.0   26.8
07/28/2014 10:30:00    -2.70    12.72    13.00  348.0   26.8
07/28/2014 11:00:00    -3.66     8.22     9.00  336.0   26.8
07/28/2014 11:30:00    -1.10     6.91     7.00  351.0   26.5
07/28/2014 12:00:00    -2.51     6.54     7.01  339.0   26.5
07/28/2014 12:30:00    -5.79     6.89     9.00  320.0   26.5
07/28/2014 13:00:00    -3.01     3.99     5.00  323.0   26.5
07/28/2014 13:30:00    -5.48     2.44     6.00  294.0   26.5
07/28/2014 14:00:00    -5.93     0.94     6.00  279.0   26.5
07/28/2014 14:30:00    -1.55     4.76     5.01  342.0   26.5
07/28/2014 15:00:00    -5.85    -1.35     6.00  257.0   26.5
07/28/2014 15:30:00    -3.76     1.37     4.00  290.0   26.5



       
 

Today's Temperature - Salinity Data     (Download)


   Date   |  Time  |   Temp |   Cond |Salinity| Density|SoundVel|
          |  (UTC) |   (°C) | (ms/cm)|        | kg/m^3 |  (m/s) |
==========+========+========+========+========+========+========+
05/31/2014 00:00:00    25.00     5.28    34.80     0.00     0.00
05/31/2014 00:30:00    24.97     5.35    35.35     0.00     0.00
05/31/2014 01:00:00    24.96     5.35    35.34     0.00     0.00
05/31/2014 01:30:00    24.92     5.34    35.34     0.00     0.00
05/31/2014 02:00:00    24.91     5.34    35.34     0.00     0.00
05/31/2014 02:30:00    24.87     5.34    35.35     0.00     0.00
05/31/2014 03:00:00    24.82     5.34    35.35     0.00     0.00
05/31/2014 03:30:00    24.81     5.34    35.36     0.00     0.00
05/31/2014 04:00:00    24.78     5.33    35.36     0.00     0.00
05/31/2014 04:30:00    24.76     5.33    35.37     0.00     0.00
05/31/2014 05:00:00    24.74     5.33    35.37     0.00     0.00
05/31/2014 05:30:00    24.72     5.33    35.38     0.00     0.00
05/31/2014 06:00:00    24.71     5.33    35.39     0.00     0.00
05/31/2014 06:30:00    24.71     5.33    35.39     0.00     0.00
05/31/2014 07:00:00    24.70     5.33    35.39     0.00     0.00
05/31/2014 07:30:00    24.71     5.33    35.39     0.00     0.00
05/31/2014 08:00:00    24.71     5.33    35.39     0.00     0.00
05/31/2014 08:30:00    24.72     5.33    35.40     0.00     0.00
05/31/2014 09:00:00    24.71     5.33    35.40     0.00     0.00
05/31/2014 09:30:00    24.73     5.33    35.41     0.00     0.00
05/31/2014 10:00:00    24.72     5.33    35.41     0.00     0.00
05/31/2014 10:30:00    24.71     5.33    35.41     0.00     0.00
05/31/2014 11:00:00    24.72     5.33    35.41     0.00     0.00
05/31/2014 11:30:00    24.72     5.33    35.42     0.00     0.00
05/31/2014 12:00:00    24.75     5.34    35.42     0.00     0.00
05/31/2014 12:30:00    24.76     5.34    35.41     0.00     0.00
05/31/2014 13:00:00    24.78     5.34    35.43     0.00     0.00
05/31/2014 13:30:00    24.79     5.34    35.42     0.00     0.00
05/31/2014 14:00:00    24.81     5.34    35.42     0.00     0.00
05/31/2014 14:30:00    24.83     5.34    35.40     0.00     0.00
05/31/2014 15:00:00    24.90     5.36    35.45     0.00     0.00
05/31/2014 15:30:00    24.90     5.36    35.44     0.00     0.00